DAL1710 KMIA-KMSP
Flight info
| Callsign | DAL1710 |
|---|---|
| Flight time | 3h 20m |
| Altitude | 34000 |
| Route | HURCN4 SMELZ Q116 VLKNN GETME/N0465F360 J151 STL IOW MNOSO BLUEM5 |
| Aircraft | B752/M-SDE3FHIM3RW/LB1 |
Departure
| Time | 2026-05-07 21:35 |
|---|---|
| Airport | Miami International Airport (KMIA) |
Arrival
| Time | 2026-05-08 00:56 |
|---|---|
| Airport | Minneapolis–Saint Paul International Airport / Wold–Chamberlain Field (KMSP) |
| Time | Latitude | Longitude | Altitude | Speed | Heading |
|---|---|---|---|---|---|
| 2026-05-07 21:21 | 25.79140 | -80.27706 | 15 ft | 0 kts | 98° |
| 2026-05-07 21:25 | 25.79141 | -80.27715 | 15 ft | 2 kts | 98° |
| 2026-05-07 21:25 | 25.79143 | -80.27731 | 15 ft | 2 kts | 98° |
| 2026-05-07 21:25 | 25.79146 | -80.27747 | 15 ft | 2 kts | 116° |
| 2026-05-07 21:25 | 25.79155 | -80.27760 | 15 ft | 2 kts | 143° |
| 2026-05-07 21:26 | 25.79168 | -80.27768 | 15 ft | 2 kts | 169° |
| 2026-05-07 21:26 | 25.79178 | -80.27769 | 15 ft | 1 kts | 186° |
| 2026-05-07 21:26 | 25.79183 | -80.27768 | 15 ft | 0 kts | 186° |
| 2026-05-07 21:27 | 25.79182 | -80.27768 | 15 ft | 0 kts | 186° |
| 2026-05-07 21:28 | 25.79149 | -80.27770 | 15 ft | 5 kts | 182° |
| 2026-05-07 21:28 | 25.79125 | -80.27772 | 15 ft | 1 kts | 185° |
| 2026-05-07 21:28 | 25.79104 | -80.27775 | 15 ft | 6 kts | 193° |
| 2026-05-07 21:28 | 25.79053 | -80.27795 | 15 ft | 8 kts | 202° |
| 2026-05-07 21:29 | 25.78993 | -80.27821 | 15 ft | 9 kts | 200° |
| 2026-05-07 21:29 | 25.78938 | -80.27866 | 15 ft | 10 kts | 247° |
| 2026-05-07 21:29 | 25.78943 | -80.27947 | 15 ft | 11 kts | 294° |
| 2026-05-07 21:29 | 25.78988 | -80.28027 | 15 ft | 12 kts | 302° |
| 2026-05-07 21:30 | 25.79034 | -80.28117 | 16 ft | 14 kts | 299° |
| 2026-05-07 21:30 | 25.79090 | -80.28213 | 16 ft | 15 kts | 300° |
| 2026-05-07 21:30 | 25.79142 | -80.28320 | 16 ft | 16 kts | 299° |
| 2026-05-07 21:30 | 25.79221 | -80.28421 | 16 ft | 20 kts | 310° |
| 2026-05-07 21:31 | 25.79303 | -80.28577 | 16 ft | 26 kts | 300° |
| 2026-05-07 21:31 | 25.79398 | -80.28757 | 16 ft | 27 kts | 300° |
| 2026-05-07 21:31 | 25.79486 | -80.28932 | 16 ft | 25 kts | 298° |
| 2026-05-07 21:31 | 25.79567 | -80.29099 | 16 ft | 23 kts | 300° |
| 2026-05-07 21:32 | 25.79649 | -80.29247 | 16 ft | 21 kts | 299° |
| 2026-05-07 21:32 | 25.79717 | -80.29388 | 15 ft | 19 kts | 299° |
| 2026-05-07 21:32 | 25.79785 | -80.29513 | 15 ft | 18 kts | 302° |
| 2026-05-07 21:32 | 25.79842 | -80.29629 | 15 ft | 16 kts | 295° |
| 2026-05-07 21:33 | 25.79891 | -80.29735 | 14 ft | 14 kts | 298° |
| 2026-05-07 21:33 | 25.79933 | -80.29830 | 14 ft | 12 kts | 294° |
| 2026-05-07 21:33 | 25.79966 | -80.29922 | 14 ft | 13 kts | 286° |
| 2026-05-07 21:33 | 25.79990 | -80.30018 | 14 ft | 12 kts | 286° |
| 2026-05-07 21:34 | 25.80015 | -80.30101 | 14 ft | 9 kts | 300° |
| 2026-05-07 21:34 | 25.80071 | -80.30103 | 14 ft | 11 kts | 60° |
| 2026-05-07 21:34 | 25.80084 | -80.29864 | 14 ft | 64 kts | 88° |
| 2026-05-07 21:34 | 25.80116 | -80.29089 | 16 ft | 135 kts | 88° |
| 2026-05-07 21:35 | 25.80186 | -80.27873 | 228 ft | 174 kts | 91° |
| 2026-05-07 21:35 | 25.80230 | -80.26487 | 852 ft | 193 kts | 90° |
| 2026-05-07 21:35 | 25.80292 | -80.24927 | 1367 ft | 212 kts | 89° |
| 2026-05-07 21:35 | 25.80361 | -80.23207 | 1716 ft | 233 kts | 89° |
| 2026-05-07 21:36 | 25.80435 | -80.21339 | 2162 ft | 251 kts | 88° |
| 2026-05-07 21:36 | 25.80553 | -80.19347 | 2572 ft | 269 kts | 79° |
| 2026-05-07 21:36 | 25.81324 | -80.17434 | 3139 ft | 277 kts | 47° |
| 2026-05-07 21:36 | 25.82822 | -80.16192 | 3955 ft | 273 kts | 19° |
| 2026-05-07 21:37 | 25.84668 | -80.15833 | 4688 ft | 273 kts | 359° |
| 2026-05-07 21:37 | 25.86572 | -80.15813 | 5506 ft | 274 kts | 0° |
| 2026-05-07 21:37 | 25.88481 | -80.15755 | 6253 ft | 276 kts | 358° |
| 2026-05-07 21:37 | 25.90355 | -80.16102 | 6907 ft | 280 kts | 342° |
| 2026-05-07 21:38 | 25.92212 | -80.16743 | 7598 ft | 283 kts | 343° |
| 2026-05-07 21:38 | 25.94109 | -80.17382 | 8270 ft | 286 kts | 343° |
| 2026-05-07 21:38 | 25.96039 | -80.18044 | 8919 ft | 291 kts | 343° |
| 2026-05-07 21:38 | 25.97891 | -80.18948 | 9541 ft | 295 kts | 323° |
| 2026-05-07 21:39 | 25.99245 | -80.20621 | 10186 ft | 298 kts | 298° |
| 2026-05-07 21:39 | 26.00123 | -80.22772 | 10536 ft | 314 kts | 293° |
| 2026-05-07 21:39 | 26.00987 | -80.25068 | 10750 ft | 333 kts | 293° |
| 2026-05-07 21:39 | 26.01895 | -80.27515 | 10960 ft | 351 kts | 292° |
| 2026-05-07 21:40 | 26.02838 | -80.30090 | 11107 ft | 369 kts | 292° |
| 2026-05-07 21:40 | 26.03810 | -80.32763 | 11349 ft | 380 kts | 292° |
| 2026-05-07 21:40 | 26.04809 | -80.35523 | 11934 ft | 382 kts | 292° |
| 2026-05-07 21:40 | 26.05798 | -80.38261 | 12471 ft | 384 kts | 292° |
| 2026-05-07 21:41 | 26.06788 | -80.41004 | 12978 ft | 387 kts | 292° |
| 2026-05-07 21:41 | 26.07796 | -80.43802 | 13482 ft | 390 kts | 292° |
| 2026-05-07 21:41 | 26.08792 | -80.46569 | 14047 ft | 390 kts | 292° |
| 2026-05-07 21:41 | 26.09807 | -80.49390 | 14574 ft | 392 kts | 292° |
| 2026-05-07 21:42 | 26.10815 | -80.52195 | 15118 ft | 393 kts | 292° |
| 2026-05-07 21:42 | 26.11993 | -80.54958 | 15619 ft | 395 kts | 301° |
| 2026-05-07 21:42 | 26.13595 | -80.57403 | 15988 ft | 400 kts | 311° |
| 2026-05-07 21:42 | 26.15631 | -80.59547 | 16005 ft | 403 kts | 322° |
| 2026-05-07 21:43 | 26.18014 | -80.61179 | 16594 ft | 402 kts | 333° |
| 2026-05-07 21:43 | 26.20572 | -80.62457 | 17123 ft | 402 kts | 335° |
| 2026-05-07 21:43 | 26.23130 | -80.63715 | 17546 ft | 405 kts | 335° |
| 2026-05-07 21:43 | 26.25735 | -80.64979 | 18027 ft | 407 kts | 335° |
| 2026-05-07 21:44 | 26.28336 | -80.66236 | 18486 ft | 409 kts | 334° |
| 2026-05-07 21:44 | 26.30975 | -80.67506 | 18896 ft | 412 kts | 334° |
| 2026-05-07 21:44 | 26.33625 | -80.68781 | 19358 ft | 413 kts | 334° |
| 2026-05-07 21:44 | 26.36249 | -80.70042 | 19758 ft | 416 kts | 334° |
| 2026-05-07 21:45 | 26.38842 | -80.71455 | 20223 ft | 415 kts | 326° |
| 2026-05-07 21:45 | 26.41200 | -80.73363 | 20590 ft | 415 kts | 316° |
| 2026-05-07 21:45 | 26.43219 | -80.75630 | 21022 ft | 414 kts | 311° |
| 2026-05-07 21:45 | 26.45190 | -80.77966 | 21412 ft | 416 kts | 311° |
| 2026-05-07 21:46 | 26.47158 | -80.80315 | 21839 ft | 417 kts | 311° |
| 2026-05-07 21:46 | 26.49149 | -80.82703 | 22210 ft | 419 kts | 310° |
| 2026-05-07 21:46 | 26.51127 | -80.85086 | 22522 ft | 422 kts | 310° |
| 2026-05-07 21:46 | 26.53134 | -80.87508 | 22960 ft | 423 kts | 310° |
| 2026-05-07 21:47 | 26.55131 | -80.89923 | 23239 ft | 427 kts | 310° |
| 2026-05-07 21:47 | 26.57162 | -80.92381 | 23593 ft | 429 kts | 310° |
| 2026-05-07 21:47 | 26.59186 | -80.94833 | 23909 ft | 431 kts | 310° |
| 2026-05-07 21:47 | 26.61204 | -80.97281 | 24306 ft | 431 kts | 310° |
| 2026-05-07 21:48 | 26.63231 | -80.99739 | 24573 ft | 435 kts | 310° |
| 2026-05-07 21:48 | 26.65299 | -81.02251 | 24968 ft | 435 kts | 310° |
| 2026-05-07 21:48 | 26.67329 | -81.04717 | 25250 ft | 437 kts | 310° |
| 2026-05-07 21:48 | 26.69395 | -81.07227 | 25607 ft | 438 kts | 310° |
| 2026-05-07 21:49 | 26.71455 | -81.09733 | 25886 ft | 441 kts | 310° |
| 2026-05-07 21:49 | 26.73538 | -81.12270 | 26187 ft | 442 kts | 310° |
| 2026-05-07 21:49 | 26.75623 | -81.14808 | 26492 ft | 444 kts | 310° |
| 2026-05-07 21:49 | 26.77726 | -81.17371 | 26768 ft | 446 kts | 310° |
| 2026-05-07 21:50 | 26.79812 | -81.19914 | 27096 ft | 447 kts | 310° |
| 2026-05-07 21:50 | 26.81907 | -81.22469 | 27332 ft | 449 kts | 310° |
| 2026-05-07 21:50 | 26.84030 | -81.25061 | 27599 ft | 451 kts | 310° |
| 2026-05-07 21:50 | 26.86152 | -81.27653 | 27876 ft | 453 kts | 310° |
| 2026-05-07 21:51 | 26.88271 | -81.30243 | 28145 ft | 454 kts | 310° |
| 2026-05-07 21:51 | 26.90433 | -81.32886 | 28436 ft | 455 kts | 310° |
| 2026-05-07 21:51 | 26.92537 | -81.35461 | 28811 ft | 454 kts | 310° |
| 2026-05-07 21:51 | 26.94677 | -81.38081 | 29214 ft | 452 kts | 310° |
| 2026-05-07 21:52 | 26.96813 | -81.40699 | 29518 ft | 452 kts | 310° |
| 2026-05-07 21:52 | 26.98916 | -81.43277 | 29920 ft | 450 kts | 310° |
| 2026-05-07 21:52 | 27.01035 | -81.45876 | 30284 ft | 449 kts | 310° |
| 2026-05-07 21:52 | 27.03129 | -81.48445 | 30607 ft | 448 kts | 310° |
| 2026-05-07 21:53 | 27.05376 | -81.50814 | 31025 ft | 448 kts | 319° |
| 2026-05-07 21:53 | 27.07966 | -81.52831 | 31367 ft | 449 kts | 323° |
| 2026-05-07 21:53 | 27.10596 | -81.54748 | 31680 ft | 448 kts | 323° |
| 2026-05-07 21:53 | 27.13199 | -81.56649 | 31991 ft | 447 kts | 323° |
| 2026-05-07 21:54 | 27.15809 | -81.58546 | 32340 ft | 445 kts | 323° |
| 2026-05-07 21:54 | 27.18417 | -81.60438 | 32596 ft | 445 kts | 323° |
| 2026-05-07 21:54 | 27.21016 | -81.62323 | 32885 ft | 444 kts | 323° |
| 2026-05-07 21:54 | 27.23593 | -81.64189 | 33088 ft | 445 kts | 323° |
| 2026-05-07 21:55 | 27.26201 | -81.66078 | 33377 ft | 443 kts | 323° |
| 2026-05-07 21:55 | 27.28813 | -81.67969 | 33693 ft | 442 kts | 323° |
| 2026-05-07 21:55 | 27.31380 | -81.69829 | 33965 ft | 439 kts | 323° |
| 2026-05-07 21:55 | 27.33918 | -81.71667 | 33957 ft | 437 kts | 323° |
| 2026-05-07 21:56 | 27.39054 | -81.75393 | 33969 ft | 438 kts | 323° |
| 2026-05-07 21:56 | 27.44196 | -81.79125 | 33964 ft | 439 kts | 323° |
| 2026-05-07 21:57 | 27.49688 | -81.82179 | 33969 ft | 444 kts | 332° |
| 2026-05-07 21:57 | 27.55371 | -81.84976 | 33961 ft | 444 kts | 332° |
| 2026-05-07 21:58 | 27.61046 | -81.87755 | 33971 ft | 444 kts | 332° |
| 2026-05-07 21:58 | 27.66716 | -81.90527 | 33967 ft | 444 kts | 332° |
| 2026-05-07 21:59 | 27.72424 | -81.93317 | 33971 ft | 443 kts | 332° |
| 2026-05-07 21:59 | 27.78071 | -81.96080 | 33975 ft | 444 kts | 331° |
| 2026-05-07 22:00 | 27.83766 | -81.98869 | 33982 ft | 443 kts | 331° |
| 2026-05-07 22:00 | 27.89432 | -82.01646 | 33989 ft | 443 kts | 331° |
| 2026-05-07 22:01 | 27.95089 | -82.04423 | 33990 ft | 443 kts | 331° |
| 2026-05-07 22:01 | 28.00789 | -82.07223 | 33988 ft | 443 kts | 331° |
| 2026-05-07 22:02 | 28.06426 | -82.10001 | 33990 ft | 443 kts | 329° |
| 2026-05-07 22:02 | 28.11608 | -82.13620 | 33993 ft | 435 kts | 320° |
| 2026-05-07 22:03 | 28.16585 | -82.17542 | 33992 ft | 435 kts | 320° |
| 2026-05-07 22:03 | 28.21544 | -82.21481 | 33992 ft | 434 kts | 320° |
| 2026-05-07 22:04 | 28.26503 | -82.25436 | 33991 ft | 434 kts | 320° |
| 2026-05-07 22:04 | 28.31472 | -82.29409 | 33989 ft | 435 kts | 320° |
| 2026-05-07 22:05 | 28.36430 | -82.33379 | 33991 ft | 434 kts | 320° |
| 2026-05-07 22:05 | 28.41364 | -82.37335 | 33992 ft | 434 kts | 320° |
| 2026-05-07 22:06 | 28.46314 | -82.41309 | 33990 ft | 434 kts | 320° |
| 2026-05-07 22:06 | 28.51242 | -82.45270 | 33993 ft | 434 kts | 320° |
| 2026-05-07 22:07 | 28.56181 | -82.49244 | 33992 ft | 434 kts | 319° |
| 2026-05-07 22:07 | 28.61107 | -82.53212 | 33985 ft | 432 kts | 319° |
| 2026-05-07 22:08 | 28.66052 | -82.57201 | 33984 ft | 435 kts | 319° |
| 2026-05-07 22:08 | 28.70979 | -82.61180 | 33985 ft | 433 kts | 319° |
| 2026-05-07 22:09 | 28.75899 | -82.65157 | 33978 ft | 432 kts | 319° |
| 2026-05-07 22:09 | 28.80814 | -82.69137 | 33994 ft | 433 kts | 319° |
| 2026-05-07 22:10 | 28.85706 | -82.73100 | 33985 ft | 433 kts | 319° |
| 2026-05-07 22:10 | 28.90622 | -82.77090 | 33985 ft | 432 kts | 318° |
| 2026-05-07 22:11 | 28.95548 | -82.81091 | 33984 ft | 432 kts | 319° |
| 2026-05-07 22:11 | 29.00415 | -82.85049 | 33983 ft | 431 kts | 319° |
| 2026-05-07 22:12 | 29.05292 | -82.89020 | 33986 ft | 430 kts | 319° |
| 2026-05-07 22:12 | 29.10209 | -82.93029 | 33982 ft | 432 kts | 319° |
| 2026-05-07 22:13 | 29.15110 | -82.97028 | 33981 ft | 431 kts | 318° |
| 2026-05-07 22:13 | 29.19974 | -83.01004 | 33981 ft | 431 kts | 318° |
| 2026-05-07 22:14 | 29.24875 | -83.05015 | 33982 ft | 431 kts | 318° |
| 2026-05-07 22:14 | 29.29752 | -83.09009 | 33966 ft | 431 kts | 318° |
| 2026-05-07 22:15 | 29.34610 | -83.12994 | 33963 ft | 430 kts | 317° |
| 2026-05-07 22:15 | 29.39502 | -83.17011 | 33960 ft | 431 kts | 317° |
| 2026-05-07 22:16 | 29.44359 | -83.21003 | 33958 ft | 429 kts | 317° |
| 2026-05-07 22:16 | 29.49198 | -83.24987 | 33957 ft | 430 kts | 317° |
| 2026-05-07 22:17 | 29.54062 | -83.28996 | 33957 ft | 430 kts | 317° |
| 2026-05-07 22:17 | 29.58936 | -83.33017 | 33954 ft | 428 kts | 317° |
| 2026-05-07 22:18 | 29.66198 | -83.39018 | 33948 ft | 428 kts | 317° |
| 2026-05-07 22:19 | 29.71020 | -83.43009 | 33949 ft | 428 kts | 317° |
| 2026-05-07 22:19 | 29.75848 | -83.47008 | 33944 ft | 427 kts | 317° |
| 2026-05-07 22:20 | 29.80659 | -83.51002 | 33942 ft | 429 kts | 317° |
| 2026-05-07 22:20 | 29.85504 | -83.55026 | 33944 ft | 427 kts | 317° |
| 2026-05-07 22:21 | 29.90324 | -83.59033 | 33948 ft | 429 kts | 317° |
| 2026-05-07 22:21 | 29.95155 | -83.63052 | 33952 ft | 427 kts | 316° |
| 2026-05-07 22:22 | 29.99980 | -83.67071 | 33978 ft | 428 kts | 316° |
| 2026-05-07 22:22 | 30.04801 | -83.71092 | 33982 ft | 427 kts | 316° |
| 2026-05-07 22:23 | 30.09624 | -83.75121 | 33976 ft | 428 kts | 316° |
| 2026-05-07 22:23 | 30.14440 | -83.79147 | 33969 ft | 428 kts | 316° |
| 2026-05-07 22:24 | 30.19282 | -83.83205 | 33967 ft | 431 kts | 316° |
| 2026-05-07 22:24 | 30.24115 | -83.87257 | 33958 ft | 429 kts | 316° |
| 2026-05-07 22:25 | 30.28935 | -83.91307 | 33953 ft | 427 kts | 316° |
| 2026-05-07 22:25 | 30.33752 | -83.95360 | 33957 ft | 429 kts | 316° |
| 2026-05-07 22:26 | 30.38596 | -83.99438 | 33953 ft | 428 kts | 316° |
| 2026-05-07 22:26 | 30.43412 | -84.03500 | 33959 ft | 428 kts | 316° |
| 2026-05-07 22:27 | 30.48196 | -84.07539 | 33956 ft | 428 kts | 316° |
| 2026-05-07 22:27 | 30.53030 | -84.11625 | 33953 ft | 427 kts | 316° |
| 2026-05-07 22:28 | 30.57823 | -84.15682 | 33954 ft | 427 kts | 316° |
| 2026-05-07 22:28 | 30.62635 | -84.19759 | 33948 ft | 428 kts | 315° |
| 2026-05-07 22:29 | 30.67395 | -84.23798 | 33948 ft | 425 kts | 316° |
| 2026-05-07 22:29 | 30.72161 | -84.27848 | 33949 ft | 424 kts | 315° |
| 2026-05-07 22:30 | 30.76930 | -84.31906 | 33946 ft | 427 kts | 315° |
| 2026-05-07 22:30 | 30.81723 | -84.35987 | 33936 ft | 425 kts | 315° |
| 2026-05-07 22:31 | 30.86487 | -84.40050 | 33939 ft | 425 kts | 315° |
| 2026-05-07 22:31 | 30.91272 | -84.44137 | 33939 ft | 427 kts | 315° |
| 2026-05-07 22:32 | 30.96017 | -84.48192 | 33940 ft | 424 kts | 315° |
| 2026-05-07 22:32 | 31.00799 | -84.52289 | 33947 ft | 427 kts | 315° |
| 2026-05-07 22:33 | 31.05563 | -84.56368 | 33944 ft | 423 kts | 315° |
| 2026-05-07 22:33 | 31.10295 | -84.60430 | 33944 ft | 422 kts | 315° |
| 2026-05-07 22:34 | 31.15038 | -84.64507 | 33939 ft | 424 kts | 315° |
| 2026-05-07 22:34 | 31.19771 | -84.68580 | 33953 ft | 424 kts | 314° |
| 2026-05-07 22:35 | 31.24517 | -84.72666 | 33954 ft | 421 kts | 314° |
| 2026-05-07 22:35 | 31.29231 | -84.76736 | 33963 ft | 424 kts | 314° |
| 2026-05-07 22:36 | 31.33925 | -84.80786 | 33963 ft | 419 kts | 314° |
| 2026-05-07 22:36 | 31.38622 | -84.84852 | 33965 ft | 421 kts | 314° |
| 2026-05-07 22:37 | 31.43351 | -84.88945 | 33963 ft | 420 kts | 314° |
| 2026-05-07 22:37 | 31.48027 | -84.92999 | 33961 ft | 419 kts | 314° |
| 2026-05-07 22:38 | 31.52727 | -84.97081 | 33957 ft | 420 kts | 314° |
| 2026-05-07 22:38 | 31.57400 | -85.01144 | 33957 ft | 420 kts | 314° |
| 2026-05-07 22:39 | 31.62079 | -85.05236 | 33957 ft | 419 kts | 314° |
| 2026-05-07 22:39 | 31.66754 | -85.09330 | 33957 ft | 419 kts | 314° |
| 2026-05-07 22:40 | 31.71419 | -85.13422 | 33956 ft | 418 kts | 314° |
| 2026-05-07 22:40 | 31.76053 | -85.17490 | 33959 ft | 418 kts | 313° |
| 2026-05-07 22:41 | 31.80744 | -85.21616 | 33961 ft | 418 kts | 313° |
| 2026-05-07 22:41 | 31.85375 | -85.25693 | 33970 ft | 420 kts | 313° |
| 2026-05-07 22:42 | 31.90056 | -85.29819 | 33961 ft | 418 kts | 313° |
| 2026-05-07 22:42 | 31.94689 | -85.33909 | 33964 ft | 416 kts | 313° |
| 2026-05-07 22:43 | 31.99304 | -85.37989 | 33959 ft | 416 kts | 313° |
| 2026-05-07 22:43 | 32.03936 | -85.42088 | 33959 ft | 416 kts | 313° |
| 2026-05-07 22:44 | 32.08540 | -85.46165 | 33960 ft | 415 kts | 313° |
| 2026-05-07 22:44 | 32.13205 | -85.50307 | 33960 ft | 416 kts | 313° |
| 2026-05-07 22:45 | 32.17853 | -85.54438 | 33957 ft | 420 kts | 313° |
| 2026-05-07 22:45 | 32.22559 | -85.58625 | 33959 ft | 424 kts | 313° |
| 2026-05-07 22:46 | 32.27261 | -85.62813 | 33962 ft | 427 kts | 313° |
| 2026-05-07 22:46 | 32.32002 | -85.67037 | 33989 ft | 424 kts | 312° |
| 2026-05-07 22:47 | 32.36724 | -85.71255 | 33983 ft | 423 kts | 312° |
| 2026-05-07 22:47 | 32.41421 | -85.75456 | 33981 ft | 422 kts | 312° |
| 2026-05-07 22:48 | 32.46129 | -85.79673 | 33993 ft | 425 kts | 312° |
| 2026-05-07 22:48 | 32.50825 | -85.83884 | 33987 ft | 423 kts | 312° |
| 2026-05-07 22:49 | 32.55533 | -85.88111 | 33991 ft | 424 kts | 312° |
| 2026-05-07 22:49 | 32.60210 | -85.92316 | 33991 ft | 421 kts | 312° |
| 2026-05-07 22:50 | 32.64901 | -85.96542 | 33997 ft | 423 kts | 312° |
| 2026-05-07 22:50 | 32.69549 | -86.00729 | 34003 ft | 421 kts | 312° |
| 2026-05-07 22:51 | 32.74225 | -86.04952 | 33992 ft | 422 kts | 311° |
| 2026-05-07 22:51 | 32.78908 | -86.09188 | 33992 ft | 423 kts | 312° |
| 2026-05-07 22:52 | 32.83546 | -86.13384 | 33982 ft | 420 kts | 311° |
| 2026-05-07 22:52 | 32.88216 | -86.17619 | 33978 ft | 421 kts | 312° |
| 2026-05-07 22:53 | 32.92885 | -86.21857 | 33992 ft | 420 kts | 312° |
| 2026-05-07 22:53 | 32.97498 | -86.26048 | 33993 ft | 418 kts | 312° |
| 2026-05-07 22:54 | 33.02128 | -86.30263 | 33994 ft | 419 kts | 311° |
| 2026-05-07 22:54 | 33.06733 | -86.34460 | 33995 ft | 418 kts | 311° |
| 2026-05-07 22:55 | 33.11344 | -86.38669 | 33984 ft | 417 kts | 311° |
| 2026-05-07 22:55 | 33.15968 | -86.42895 | 33986 ft | 417 kts | 311° |
| 2026-05-07 22:56 | 33.20567 | -86.47102 | 33986 ft | 415 kts | 311° |
| 2026-05-07 22:56 | 33.25187 | -86.51337 | 33978 ft | 418 kts | 311° |
| 2026-05-07 22:57 | 33.29783 | -86.55553 | 33979 ft | 417 kts | 311° |
| 2026-05-07 22:57 | 33.34362 | -86.59761 | 33983 ft | 415 kts | 311° |
| 2026-05-07 22:58 | 33.38945 | -86.63978 | 33986 ft | 413 kts | 311° |
| 2026-05-07 22:58 | 33.43494 | -86.68169 | 34014 ft | 412 kts | 311° |
| 2026-05-07 22:59 | 33.48030 | -86.72354 | 34016 ft | 412 kts | 311° |
| 2026-05-07 22:59 | 33.52573 | -86.76552 | 34022 ft | 412 kts | 311° |
| 2026-05-07 23:00 | 33.57119 | -86.80762 | 34022 ft | 415 kts | 311° |
| 2026-05-07 23:00 | 33.61670 | -86.84975 | 34019 ft | 412 kts | 311° |
| 2026-05-07 23:01 | 33.66194 | -86.89172 | 34021 ft | 413 kts | 311° |
| 2026-05-07 23:01 | 33.70983 | -86.93064 | 34009 ft | 417 kts | 315° |
| 2026-05-07 23:02 | 33.75860 | -86.96889 | 34019 ft | 417 kts | 315° |
| 2026-05-07 23:02 | 33.80718 | -87.00706 | 34011 ft | 418 kts | 315° |
| 2026-05-07 23:03 | 33.85559 | -87.04517 | 34014 ft | 418 kts | 315° |
| 2026-05-07 23:03 | 33.90429 | -87.08358 | 34021 ft | 419 kts | 315° |
| 2026-05-07 23:04 | 33.95296 | -87.12202 | 34018 ft | 416 kts | 315° |
| 2026-05-07 23:04 | 34.00120 | -87.16016 | 34019 ft | 418 kts | 315° |
| 2026-05-07 23:05 | 34.04973 | -87.19865 | 34021 ft | 420 kts | 315° |
| 2026-05-07 23:05 | 34.09850 | -87.23730 | 34014 ft | 416 kts | 315° |
| 2026-05-07 23:06 | 34.14711 | -87.27593 | 34011 ft | 419 kts | 314° |
| 2026-05-07 23:06 | 34.19560 | -87.31448 | 34010 ft | 416 kts | 315° |
| 2026-05-07 23:07 | 34.24377 | -87.35280 | 34010 ft | 415 kts | 314° |
| 2026-05-07 23:07 | 34.29194 | -87.39123 | 34009 ft | 414 kts | 314° |
| 2026-05-07 23:08 | 34.34023 | -87.42982 | 34007 ft | 417 kts | 314° |
| 2026-05-07 23:08 | 34.38834 | -87.46826 | 34007 ft | 417 kts | 314° |
| 2026-05-07 23:09 | 34.43686 | -87.50711 | 34005 ft | 419 kts | 314° |
| 2026-05-07 23:09 | 34.48559 | -87.54620 | 34013 ft | 420 kts | 314° |
| 2026-05-07 23:10 | 34.53426 | -87.58528 | 34009 ft | 419 kts | 314° |
| 2026-05-07 23:10 | 34.58268 | -87.62419 | 34012 ft | 418 kts | 314° |
| 2026-05-07 23:11 | 34.63119 | -87.66325 | 34040 ft | 417 kts | 313° |
| 2026-05-07 23:11 | 34.67974 | -87.70241 | 34042 ft | 420 kts | 313° |
| 2026-05-07 23:12 | 34.72821 | -87.74149 | 34035 ft | 414 kts | 313° |
| 2026-05-07 23:12 | 34.77600 | -87.78016 | 34034 ft | 415 kts | 312° |
| 2026-05-07 23:13 | 34.82404 | -87.81909 | 34030 ft | 418 kts | 312° |
| 2026-05-07 23:13 | 34.87221 | -87.85809 | 34033 ft | 414 kts | 312° |
| 2026-05-07 23:14 | 34.91998 | -87.89692 | 34042 ft | 413 kts | 312° |
| 2026-05-07 23:14 | 34.96791 | -87.93588 | 34033 ft | 413 kts | 312° |
| 2026-05-07 23:15 | 35.01601 | -87.97506 | 34031 ft | 414 kts | 312° |
| 2026-05-07 23:15 | 35.06364 | -88.01392 | 34044 ft | 415 kts | 312° |
| 2026-05-07 23:16 | 35.11144 | -88.05293 | 34034 ft | 411 kts | 312° |
| 2026-05-07 23:16 | 35.15916 | -88.09199 | 34029 ft | 414 kts | 311° |
| 2026-05-07 23:17 | 35.20697 | -88.13112 | 34033 ft | 409 kts | 312° |
| 2026-05-07 23:17 | 35.25407 | -88.16976 | 34041 ft | 408 kts | 311° |
| 2026-05-07 23:18 | 35.30136 | -88.20866 | 34041 ft | 414 kts | 311° |
| 2026-05-07 23:18 | 35.34927 | -88.24803 | 34041 ft | 412 kts | 312° |
| 2026-05-07 23:19 | 35.39537 | -88.28599 | 34041 ft | 410 kts | 312° |
| 2026-05-07 23:19 | 35.44268 | -88.32503 | 34039 ft | 411 kts | 311° |
| 2026-05-07 23:20 | 35.49017 | -88.36427 | 34036 ft | 411 kts | 312° |
| 2026-05-07 23:20 | 35.53753 | -88.40346 | 34041 ft | 410 kts | 312° |
| 2026-05-07 23:21 | 35.58481 | -88.44265 | 34035 ft | 410 kts | 311° |
| 2026-05-07 23:21 | 35.63184 | -88.48172 | 34031 ft | 410 kts | 311° |
| 2026-05-07 23:22 | 35.67912 | -88.52104 | 34029 ft | 409 kts | 311° |
| 2026-05-07 23:22 | 35.72626 | -88.56033 | 34028 ft | 410 kts | 311° |
| 2026-05-07 23:23 | 35.77348 | -88.59973 | 34026 ft | 411 kts | 312° |
| 2026-05-07 23:23 | 35.82056 | -88.63905 | 34027 ft | 409 kts | 311° |
| 2026-05-07 23:24 | 35.86783 | -88.67863 | 34053 ft | 410 kts | 311° |
| 2026-05-07 23:24 | 35.91484 | -88.71797 | 34049 ft | 406 kts | 311° |
| 2026-05-07 23:25 | 35.96161 | -88.75726 | 34047 ft | 406 kts | 311° |
| 2026-05-07 23:25 | 36.00800 | -88.79625 | 34047 ft | 407 kts | 311° |
| 2026-05-07 23:26 | 36.05500 | -88.83583 | 34039 ft | 406 kts | 311° |
| 2026-05-07 23:26 | 36.10146 | -88.87496 | 34042 ft | 405 kts | 311° |
| 2026-05-07 23:27 | 36.17199 | -88.93454 | 34037 ft | 408 kts | 311° |
| 2026-05-07 23:27 | 36.21845 | -88.97382 | 34037 ft | 405 kts | 311° |
| 2026-05-07 23:28 | 36.26511 | -89.01337 | 34037 ft | 406 kts | 311° |
| 2026-05-07 23:28 | 36.31160 | -89.05283 | 34038 ft | 408 kts | 311° |
| 2026-05-07 23:29 | 36.35830 | -89.09244 | 34030 ft | 405 kts | 311° |
| 2026-05-07 23:29 | 36.40492 | -89.13209 | 34028 ft | 404 kts | 311° |
| 2026-05-07 23:30 | 36.45142 | -89.17171 | 34027 ft | 406 kts | 311° |
| 2026-05-07 23:30 | 36.49770 | -89.21117 | 34031 ft | 407 kts | 311° |
| 2026-05-07 23:31 | 36.54445 | -89.25108 | 34022 ft | 406 kts | 311° |
| 2026-05-07 23:31 | 36.59094 | -89.29087 | 34021 ft | 407 kts | 312° |
| 2026-05-07 23:32 | 36.63772 | -89.33094 | 34016 ft | 408 kts | 311° |
| 2026-05-07 23:32 | 36.68441 | -89.37097 | 34021 ft | 406 kts | 311° |
| 2026-05-07 23:33 | 36.73067 | -89.41070 | 34017 ft | 404 kts | 311° |
| 2026-05-07 23:33 | 36.77714 | -89.45074 | 34022 ft | 408 kts | 311° |
| 2026-05-07 23:34 | 36.82363 | -89.49077 | 34014 ft | 405 kts | 311° |
| 2026-05-07 23:34 | 36.87003 | -89.53082 | 34022 ft | 406 kts | 311° |
| 2026-05-07 23:35 | 36.91649 | -89.57098 | 34019 ft | 406 kts | 311° |
| 2026-05-07 23:35 | 36.96305 | -89.61128 | 34017 ft | 407 kts | 312° |
| 2026-05-07 23:36 | 37.00913 | -89.65120 | 34016 ft | 405 kts | 311° |
| 2026-05-07 23:36 | 37.05586 | -89.69181 | 34041 ft | 409 kts | 311° |
| 2026-05-07 23:37 | 37.10252 | -89.73234 | 34030 ft | 406 kts | 311° |
| 2026-05-07 23:37 | 37.14895 | -89.77277 | 34025 ft | 406 kts | 311° |
| 2026-05-07 23:38 | 37.19549 | -89.81339 | 34022 ft | 409 kts | 311° |
| 2026-05-07 23:38 | 37.24223 | -89.85418 | 34017 ft | 405 kts | 312° |
| 2026-05-07 23:39 | 37.28819 | -89.89439 | 34012 ft | 407 kts | 312° |
| 2026-05-07 23:39 | 37.33486 | -89.93528 | 34012 ft | 407 kts | 312° |
| 2026-05-07 23:40 | 37.38121 | -89.97596 | 34012 ft | 409 kts | 312° |
| 2026-05-07 23:40 | 37.42778 | -90.01688 | 34004 ft | 408 kts | 312° |
| 2026-05-07 23:41 | 37.47438 | -90.05789 | 33999 ft | 409 kts | 312° |
| 2026-05-07 23:41 | 37.52108 | -90.09906 | 34003 ft | 410 kts | 313° |
| 2026-05-07 23:42 | 37.56765 | -90.14015 | 34006 ft | 408 kts | 312° |
| 2026-05-07 23:42 | 37.61454 | -90.18162 | 33986 ft | 409 kts | 312° |
| 2026-05-07 23:43 | 37.66206 | -90.22124 | 34007 ft | 423 kts | 320° |
| 2026-05-07 23:43 | 37.68994 | -90.23570 | 34024 ft | 441 kts | 329° |
| 2026-05-07 23:43 | 37.72014 | -90.24438 | 34014 ft | 452 kts | 337° |
| 2026-05-07 23:44 | 37.78278 | -90.25678 | 33994 ft | 455 kts | 337° |
| 2026-05-07 23:44 | 37.84513 | -90.26952 | 33990 ft | 456 kts | 337° |
| 2026-05-07 23:45 | 37.90797 | -90.28246 | 33989 ft | 459 kts | 336° |
| 2026-05-07 23:45 | 37.97093 | -90.29544 | 33986 ft | 455 kts | 337° |
| 2026-05-07 23:46 | 38.03390 | -90.30853 | 33976 ft | 455 kts | 338° |
| 2026-05-07 23:46 | 38.09596 | -90.32140 | 33986 ft | 453 kts | 337° |
| 2026-05-07 23:47 | 38.15775 | -90.33429 | 33982 ft | 453 kts | 337° |
| 2026-05-07 23:47 | 38.22085 | -90.34742 | 33965 ft | 450 kts | 337° |
| 2026-05-07 23:48 | 38.28278 | -90.36040 | 33971 ft | 451 kts | 337° |
| 2026-05-07 23:48 | 38.34480 | -90.37337 | 33982 ft | 452 kts | 338° |
| 2026-05-07 23:49 | 38.40649 | -90.38631 | 33984 ft | 450 kts | 338° |
| 2026-05-07 23:49 | 38.46850 | -90.39935 | 33992 ft | 452 kts | 338° |
| 2026-05-07 23:50 | 38.53103 | -90.41251 | 33986 ft | 451 kts | 338° |
| 2026-05-07 23:50 | 38.59247 | -90.42543 | 33994 ft | 446 kts | 338° |
| 2026-05-07 23:51 | 38.65406 | -90.43846 | 33975 ft | 447 kts | 338° |
| 2026-05-07 23:51 | 38.71544 | -90.45145 | 33980 ft | 446 kts | 338° |
| 2026-05-07 23:52 | 38.77720 | -90.46455 | 33977 ft | 448 kts | 338° |
| 2026-05-07 23:52 | 38.83818 | -90.47746 | 33978 ft | 444 kts | 338° |
| 2026-05-07 23:53 | 38.89828 | -90.49331 | 33983 ft | 429 kts | 328° |
| 2026-05-07 23:53 | 38.95452 | -90.51873 | 33977 ft | 430 kts | 329° |
| 2026-05-07 23:54 | 39.01123 | -90.54300 | 33971 ft | 428 kts | 330° |
| 2026-05-07 23:54 | 39.06792 | -90.56677 | 33947 ft | 431 kts | 330° |
| 2026-05-07 23:55 | 39.12518 | -90.59050 | 33950 ft | 430 kts | 331° |
| 2026-05-07 23:55 | 39.18245 | -90.61420 | 33950 ft | 432 kts | 331° |
| 2026-05-07 23:56 | 39.23949 | -90.63777 | 33940 ft | 431 kts | 332° |
| 2026-05-07 23:56 | 39.29602 | -90.66115 | 33950 ft | 431 kts | 331° |
| 2026-05-07 23:57 | 39.35308 | -90.68478 | 33959 ft | 431 kts | 331° |
| 2026-05-07 23:57 | 39.41019 | -90.70847 | 33942 ft | 430 kts | 331° |
| 2026-05-07 23:58 | 39.46748 | -90.73230 | 33961 ft | 435 kts | 331° |
| 2026-05-07 23:58 | 39.52515 | -90.75627 | 33961 ft | 430 kts | 332° |
| 2026-05-07 23:59 | 39.58177 | -90.77988 | 33954 ft | 430 kts | 331° |
| 2026-05-07 23:59 | 39.63943 | -90.80401 | 33973 ft | 435 kts | 332° |
| 2026-05-08 00:00 | 39.69723 | -90.82817 | 33954 ft | 434 kts | 332° |
| 2026-05-08 00:00 | 39.75416 | -90.85200 | 33965 ft | 431 kts | 332° |
| 2026-05-08 00:01 | 39.81165 | -90.87615 | 33951 ft | 431 kts | 332° |
| 2026-05-08 00:01 | 39.86908 | -90.90032 | 33960 ft | 433 kts | 332° |
| 2026-05-08 00:02 | 39.92660 | -90.92455 | 33960 ft | 433 kts | 332° |
| 2026-05-08 00:02 | 39.98369 | -90.94864 | 33955 ft | 431 kts | 332° |
| 2026-05-08 00:03 | 40.04060 | -90.97271 | 33952 ft | 433 kts | 332° |
| 2026-05-08 00:03 | 40.09819 | -90.99710 | 33939 ft | 433 kts | 332° |
| 2026-05-08 00:04 | 40.15476 | -91.02113 | 33955 ft | 436 kts | 333° |
| 2026-05-08 00:04 | 40.21254 | -91.04566 | 33948 ft | 433 kts | 333° |
| 2026-05-08 00:05 | 40.26970 | -91.07001 | 33947 ft | 435 kts | 333° |
| 2026-05-08 00:05 | 40.32726 | -91.09457 | 33957 ft | 436 kts | 333° |
| 2026-05-08 00:06 | 40.38469 | -91.11910 | 33937 ft | 434 kts | 333° |
| 2026-05-08 00:06 | 40.44257 | -91.14391 | 33944 ft | 440 kts | 333° |
| 2026-05-08 00:07 | 40.50035 | -91.16867 | 33931 ft | 436 kts | 333° |
| 2026-05-08 00:07 | 40.55822 | -91.19355 | 33929 ft | 438 kts | 334° |
| 2026-05-08 00:08 | 40.61661 | -91.21870 | 33926 ft | 442 kts | 334° |
| 2026-05-08 00:08 | 40.67460 | -91.24368 | 33922 ft | 439 kts | 334° |
| 2026-05-08 00:09 | 40.73277 | -91.26883 | 33924 ft | 441 kts | 334° |
| 2026-05-08 00:09 | 40.79105 | -91.29406 | 33926 ft | 441 kts | 335° |
| 2026-05-08 00:10 | 40.84945 | -91.31939 | 33923 ft | 442 kts | 335° |
| 2026-05-08 00:10 | 40.90813 | -91.34488 | 33925 ft | 443 kts | 335° |
| 2026-05-08 00:11 | 40.96665 | -91.37036 | 33911 ft | 446 kts | 335° |
| 2026-05-08 00:11 | 41.02572 | -91.39611 | 33916 ft | 444 kts | 335° |
| 2026-05-08 00:12 | 41.08393 | -91.42152 | 33906 ft | 443 kts | 335° |
| 2026-05-08 00:12 | 41.14302 | -91.44739 | 33905 ft | 442 kts | 335° |
| 2026-05-08 00:13 | 41.20152 | -91.47304 | 33903 ft | 440 kts | 335° |
| 2026-05-08 00:13 | 41.25942 | -91.49850 | 33905 ft | 442 kts | 335° |
| 2026-05-08 00:14 | 41.31809 | -91.52432 | 33900 ft | 441 kts | 335° |
| 2026-05-08 00:14 | 41.37590 | -91.54982 | 33902 ft | 441 kts | 335° |
| 2026-05-08 00:15 | 41.43419 | -91.57557 | 33895 ft | 439 kts | 335° |
| 2026-05-08 00:15 | 41.49162 | -91.60127 | 33892 ft | 435 kts | 332° |
| 2026-05-08 00:16 | 41.54286 | -91.64136 | 33901 ft | 423 kts | 317° |
| 2026-05-08 00:16 | 41.58940 | -91.69005 | 33905 ft | 422 kts | 317° |
| 2026-05-08 00:17 | 41.63513 | -91.73866 | 33904 ft | 422 kts | 316° |
| 2026-05-08 00:17 | 41.68083 | -91.78772 | 33904 ft | 421 kts | 316° |
| 2026-05-08 00:18 | 41.72629 | -91.83681 | 33895 ft | 420 kts | 316° |
| 2026-05-08 00:18 | 41.77181 | -91.88612 | 33891 ft | 419 kts | 316° |
| 2026-05-08 00:19 | 41.81706 | -91.93527 | 33892 ft | 423 kts | 316° |
| 2026-05-08 00:19 | 41.86268 | -91.98492 | 33887 ft | 420 kts | 316° |
| 2026-05-08 00:20 | 41.90765 | -92.03396 | 33885 ft | 419 kts | 316° |
| 2026-05-08 00:20 | 41.95303 | -92.08355 | 33886 ft | 420 kts | 316° |
| 2026-05-08 00:21 | 41.99840 | -92.13323 | 33882 ft | 420 kts | 316° |
| 2026-05-08 00:21 | 42.04336 | -92.18255 | 33877 ft | 419 kts | 316° |
| 2026-05-08 00:22 | 42.08879 | -92.23248 | 33872 ft | 420 kts | 316° |
| 2026-05-08 00:22 | 42.13350 | -92.28171 | 33881 ft | 420 kts | 316° |
| 2026-05-08 00:23 | 42.17882 | -92.33170 | 33879 ft | 420 kts | 316° |
| 2026-05-08 00:23 | 42.22380 | -92.38143 | 33885 ft | 421 kts | 317° |
| 2026-05-08 00:24 | 42.26904 | -92.43151 | 33875 ft | 420 kts | 317° |
| 2026-05-08 00:24 | 42.31408 | -92.48149 | 33873 ft | 418 kts | 317° |
| 2026-05-08 00:25 | 42.35903 | -92.53145 | 33865 ft | 419 kts | 317° |
| 2026-05-08 00:25 | 42.40852 | -92.57372 | 33870 ft | 429 kts | 329° |
| 2026-05-08 00:26 | 42.43563 | -92.59120 | 33615 ft | 431 kts | 329° |
| 2026-05-08 00:26 | 42.46279 | -92.60881 | 33347 ft | 430 kts | 329° |
| 2026-05-08 00:26 | 42.48964 | -92.62618 | 33077 ft | 428 kts | 329° |
| 2026-05-08 00:26 | 42.51654 | -92.64358 | 32815 ft | 427 kts | 329° |
| 2026-05-08 00:27 | 42.54330 | -92.66087 | 32560 ft | 427 kts | 329° |
| 2026-05-08 00:27 | 42.57040 | -92.67840 | 32304 ft | 429 kts | 329° |
| 2026-05-08 00:27 | 42.59715 | -92.69569 | 32054 ft | 427 kts | 329° |
| 2026-05-08 00:27 | 42.62405 | -92.71310 | 31794 ft | 423 kts | 329° |
| 2026-05-08 00:28 | 42.65029 | -92.73008 | 31549 ft | 421 kts | 329° |
| 2026-05-08 00:28 | 42.67672 | -92.74721 | 31291 ft | 419 kts | 329° |
| 2026-05-08 00:28 | 42.70278 | -92.76411 | 31044 ft | 419 kts | 329° |
| 2026-05-08 00:28 | 42.72903 | -92.78116 | 30785 ft | 416 kts | 329° |
| 2026-05-08 00:29 | 42.75516 | -92.79813 | 30533 ft | 413 kts | 329° |
| 2026-05-08 00:29 | 42.78092 | -92.81491 | 30279 ft | 412 kts | 329° |
| 2026-05-08 00:29 | 42.80669 | -92.83188 | 30029 ft | 411 kts | 329° |
| 2026-05-08 00:29 | 42.83247 | -92.84886 | 29770 ft | 410 kts | 329° |
| 2026-05-08 00:30 | 42.85813 | -92.86576 | 29513 ft | 408 kts | 329° |
| 2026-05-08 00:30 | 42.88355 | -92.88253 | 29271 ft | 405 kts | 329° |
| 2026-05-08 00:30 | 42.90894 | -92.89929 | 29008 ft | 402 kts | 329° |
| 2026-05-08 00:30 | 42.93395 | -92.91581 | 28752 ft | 399 kts | 329° |
| 2026-05-08 00:31 | 42.95895 | -92.93237 | 28493 ft | 398 kts | 329° |
| 2026-05-08 00:31 | 42.98347 | -92.94860 | 28236 ft | 397 kts | 330° |
| 2026-05-08 00:31 | 43.00836 | -92.96509 | 27977 ft | 396 kts | 329° |
| 2026-05-08 00:31 | 43.03302 | -92.98144 | 27713 ft | 395 kts | 329° |
| 2026-05-08 00:32 | 43.05767 | -92.99780 | 27454 ft | 392 kts | 330° |
| 2026-05-08 00:32 | 43.08221 | -93.01410 | 27186 ft | 390 kts | 329° |
| 2026-05-08 00:32 | 43.10674 | -93.03043 | 26927 ft | 389 kts | 330° |
| 2026-05-08 00:32 | 43.13025 | -93.04607 | 26686 ft | 387 kts | 329° |
| 2026-05-08 00:33 | 43.15382 | -93.06177 | 26441 ft | 385 kts | 329° |
| 2026-05-08 00:33 | 43.17784 | -93.07778 | 26195 ft | 384 kts | 330° |
| 2026-05-08 00:33 | 43.20155 | -93.09361 | 25948 ft | 382 kts | 329° |
| 2026-05-08 00:33 | 43.22546 | -93.10958 | 25694 ft | 380 kts | 330° |
| 2026-05-08 00:34 | 43.24923 | -93.12547 | 25443 ft | 378 kts | 330° |
| 2026-05-08 00:34 | 43.27259 | -93.14111 | 25190 ft | 376 kts | 330° |
| 2026-05-08 00:34 | 43.29626 | -93.15695 | 24932 ft | 376 kts | 330° |
| 2026-05-08 00:34 | 43.31955 | -93.17256 | 24682 ft | 374 kts | 330° |
| 2026-05-08 00:35 | 43.34288 | -93.18821 | 24424 ft | 371 kts | 330° |
| 2026-05-08 00:35 | 43.36590 | -93.20367 | 24167 ft | 369 kts | 330° |
| 2026-05-08 00:35 | 43.38916 | -93.21930 | 23922 ft | 369 kts | 330° |
| 2026-05-08 00:35 | 43.41184 | -93.23455 | 23891 ft | 365 kts | 330° |
| 2026-05-08 00:36 | 43.43481 | -93.25002 | 23894 ft | 367 kts | 330° |
| 2026-05-08 00:36 | 43.45766 | -93.26542 | 23889 ft | 368 kts | 330° |
| 2026-05-08 00:36 | 43.48137 | -93.27964 | 23700 ft | 376 kts | 337° |
| 2026-05-08 00:36 | 43.50678 | -93.28763 | 23446 ft | 380 kts | 347° |
| 2026-05-08 00:37 | 43.53350 | -93.28878 | 22997 ft | 385 kts | 356° |
| 2026-05-08 00:37 | 43.56000 | -93.28612 | 22513 ft | 380 kts | 357° |
| 2026-05-08 00:37 | 43.58620 | -93.28362 | 22055 ft | 374 kts | 357° |
| 2026-05-08 00:38 | 43.63771 | -93.27869 | 21142 ft | 372 kts | 357° |
| 2026-05-08 00:38 | 43.66356 | -93.27621 | 20688 ft | 370 kts | 358° |
| 2026-05-08 00:38 | 43.68916 | -93.27373 | 20237 ft | 367 kts | 358° |
| 2026-05-08 00:38 | 43.71458 | -93.27128 | 19782 ft | 364 kts | 358° |
| 2026-05-08 00:39 | 43.73966 | -93.26884 | 19348 ft | 362 kts | 358° |
| 2026-05-08 00:39 | 43.76465 | -93.26643 | 18915 ft | 360 kts | 358° |
| 2026-05-08 00:39 | 43.78959 | -93.26401 | 18486 ft | 357 kts | 358° |
| 2026-05-08 00:39 | 43.81434 | -93.26161 | 18034 ft | 354 kts | 358° |
| 2026-05-08 00:40 | 43.83848 | -93.25927 | 17609 ft | 351 kts | 358° |
| 2026-05-08 00:40 | 43.86312 | -93.25688 | 17192 ft | 352 kts | 358° |
| 2026-05-08 00:40 | 43.88734 | -93.25454 | 16797 ft | 351 kts | 358° |
| 2026-05-08 00:40 | 43.91175 | -93.25216 | 16357 ft | 349 kts | 358° |
| 2026-05-08 00:41 | 43.93582 | -93.24981 | 16011 ft | 346 kts | 358° |
| 2026-05-08 00:41 | 43.95981 | -93.24746 | 15981 ft | 343 kts | 358° |
| 2026-05-08 00:41 | 43.98396 | -93.24501 | 15709 ft | 358 kts | 359° |
| 2026-05-08 00:41 | 44.00889 | -93.24235 | 14938 ft | 357 kts | 359° |
| 2026-05-08 00:42 | 44.03344 | -93.23970 | 14178 ft | 356 kts | 359° |
| 2026-05-08 00:42 | 44.05820 | -93.23704 | 13482 ft | 355 kts | 359° |
| 2026-05-08 00:42 | 44.08261 | -93.23441 | 12844 ft | 352 kts | 359° |
| 2026-05-08 00:42 | 44.10681 | -93.23180 | 12201 ft | 349 kts | 359° |
| 2026-05-08 00:43 | 44.13103 | -93.22920 | 11576 ft | 346 kts | 359° |
| 2026-05-08 00:43 | 44.15384 | -93.22671 | 11327 ft | 331 kts | 359° |
| 2026-05-08 00:43 | 44.17643 | -93.22425 | 10999 ft | 323 kts | 359° |
| 2026-05-08 00:43 | 44.19564 | -93.22247 | 10586 ft | 331 kts | 359° |
| 2026-05-08 00:44 | 44.21851 | -93.22040 | 10368 ft | 329 kts | 359° |
| 2026-05-08 00:44 | 44.24139 | -93.21832 | 10168 ft | 331 kts | 359° |
| 2026-05-08 00:44 | 44.26424 | -93.21622 | 10075 ft | 327 kts | 358° |
| 2026-05-08 00:44 | 44.28722 | -93.21416 | 10093 ft | 330 kts | 358° |
| 2026-05-08 00:45 | 44.31028 | -93.21235 | 10099 ft | 330 kts | 358° |
| 2026-05-08 00:45 | 44.33322 | -93.21053 | 10090 ft | 329 kts | 358° |
| 2026-05-08 00:45 | 44.35618 | -93.20872 | 10087 ft | 323 kts | 358° |
| 2026-05-08 00:45 | 44.37784 | -93.20573 | 10029 ft | 308 kts | 6° |
| 2026-05-08 00:46 | 44.39785 | -93.19934 | 9951 ft | 276 kts | 6° |
| 2026-05-08 00:46 | 44.41574 | -93.19370 | 10012 ft | 259 kts | 6° |
| 2026-05-08 00:46 | 44.43373 | -93.18551 | 9761 ft | 281 kts | 24° |
| 2026-05-08 00:46 | 44.44974 | -93.17023 | 9516 ft | 281 kts | 29° |
| 2026-05-08 00:47 | 44.46580 | -93.15438 | 9248 ft | 278 kts | 28° |
| 2026-05-08 00:47 | 44.48164 | -93.13875 | 8980 ft | 275 kts | 29° |
| 2026-05-08 00:47 | 44.49713 | -93.12338 | 8729 ft | 274 kts | 30° |
| 2026-05-08 00:47 | 44.51268 | -93.10790 | 8477 ft | 274 kts | 30° |
| 2026-05-08 00:48 | 44.52824 | -93.09239 | 8210 ft | 274 kts | 30° |
| 2026-05-08 00:48 | 44.54369 | -93.07697 | 7935 ft | 272 kts | 30° |
| 2026-05-08 00:48 | 44.55922 | -93.06145 | 7678 ft | 271 kts | 30° |
| 2026-05-08 00:48 | 44.57450 | -93.04617 | 7439 ft | 272 kts | 30° |
| 2026-05-08 00:49 | 44.59008 | -93.03057 | 7123 ft | 274 kts | 31° |
| 2026-05-08 00:49 | 44.60525 | -93.01532 | 6966 ft | 260 kts | 31° |
| 2026-05-08 00:49 | 44.61966 | -93.00111 | 6963 ft | 242 kts | 22° |
| 2026-05-08 00:49 | 44.63475 | -92.99526 | 6961 ft | 217 kts | 355° |
| 2026-05-08 00:50 | 44.65049 | -92.99551 | 6513 ft | 233 kts | 354° |
| 2026-05-08 00:50 | 44.66686 | -92.99609 | 6026 ft | 240 kts | 353° |
| 2026-05-08 00:50 | 44.68356 | -92.99698 | 5681 ft | 239 kts | 353° |
| 2026-05-08 00:50 | 44.69708 | -92.99781 | 5540 ft | 234 kts | 353° |
| 2026-05-08 00:51 | 44.71266 | -92.99887 | 5364 ft | 225 kts | 353° |
| 2026-05-08 00:51 | 44.72844 | -93.00004 | 5193 ft | 225 kts | 353° |
| 2026-05-08 00:51 | 44.74433 | -93.00128 | 5037 ft | 231 kts | 353° |
| 2026-05-08 00:51 | 44.76042 | -93.00254 | 4872 ft | 231 kts | 353° |
| 2026-05-08 00:52 | 44.77638 | -93.00447 | 4697 ft | 226 kts | 341° |
| 2026-05-08 00:52 | 44.78977 | -93.01517 | 4541 ft | 222 kts | 311° |
| 2026-05-08 00:52 | 44.79905 | -93.03316 | 4101 ft | 230 kts | 303° |
| 2026-05-08 00:52 | 44.80781 | -93.05215 | 3607 ft | 235 kts | 302° |
| 2026-05-08 00:53 | 44.81653 | -93.07148 | 3080 ft | 229 kts | 302° |
| 2026-05-08 00:53 | 44.82391 | -93.08758 | 3002 ft | 211 kts | 302° |
| 2026-05-08 00:53 | 44.83142 | -93.10474 | 2929 ft | 202 kts | 301° |
| 2026-05-08 00:53 | 44.83884 | -93.12186 | 2469 ft | 204 kts | 301° |
| 2026-05-08 00:54 | 44.84594 | -93.13803 | 2183 ft | 185 kts | 301° |
| 2026-05-08 00:54 | 44.85224 | -93.15240 | 1956 ft | 157 kts | 302° |
| 2026-05-08 00:54 | 44.85761 | -93.16453 | 1712 ft | 137 kts | 301° |
| 2026-05-08 00:54 | 44.86238 | -93.17604 | 1328 ft | 139 kts | 298° |
| 2026-05-08 00:55 | 44.86734 | -93.18810 | 1103 ft | 145 kts | 303° |
| 2026-05-08 00:55 | 44.87281 | -93.19969 | 878 ft | 137 kts | 301° |
| 2026-05-08 00:55 | 44.87738 | -93.21036 | 823 ft | 110 kts | 303° |
| 2026-05-08 00:55 | 44.88032 | -93.21699 | 830 ft | 56 kts | 304° |
| 2026-05-08 00:56 | 44.88203 | -93.21992 | 833 ft | 18 kts | 353° |
| 2026-05-08 00:56 | 44.88261 | -93.21936 | 833 ft | 8 kts | 97° |
| 2026-05-08 00:56 | 44.88221 | -93.21830 | 832 ft | 17 kts | 122° |
| 2026-05-08 00:56 | 44.88154 | -93.21671 | 830 ft | 19 kts | 117° |
| 2026-05-08 00:57 | 44.88232 | -93.21500 | 829 ft | 29 kts | 36° |
| 2026-05-08 00:57 | 44.88300 | -93.21451 | 829 ft | 0 kts | 20° |